< Typhoon 196126 1961 Season Typhoon 196128 >
Typhoon 196127 (CLARA)
General InformationTrack Information on Google Maps || Disaster Info.ResourceGoogle EarthGE AnimationAtom FeedGeoJSON
Detalied Best Track (Time Zone = UTC)
Year Month Day Hour Lat. Long. Pressure (hPa) Wind (kt) Class Image Chart
1961 10 25 06 17.0 166.0 1006 0 2 -- Chart
1961 10 25 12 17.5 166.0 1008 0 2 -- Chart
1961 10 25 18 17.8 166.0 1004 0 2 -- Chart
1961 10 26 00 18.0 166.2 1004 0 2 -- Chart
1961 10 26 06 18.0 166.5 1003 0 2 -- Chart
1961 10 26 12 18.0 167.6 1004 0 2 -- Chart
1961 10 26 18 18.3 169.2 1002 0 2 -- Chart
1961 10 27 00 18.9 170.2 1000 0 2 -- Chart
1961 10 27 06 18.8 169.7 1000 0 2 -- Chart
1961 10 27 12 18.7 169.4 1000 0 2 -- Chart
1961 10 27 18 18.6 168.9 990 0 2 -- Chart
1961 10 28 00 18.5 168.4 985 0 9 -- Chart
1961 10 28 06 18.8 167.3 985 0 9 -- Chart
1961 10 28 12 19.1 165.7 990 0 9 -- Chart
1961 10 28 18 19.5 164.6 990 0 9 -- Chart
1961 10 29 00 19.8 163.8 994 0 9 -- Chart
1961 10 29 06 20.0 162.0 994 0 9 -- Chart
1961 10 29 12 20.1 160.8 994 0 9 -- Chart
1961 10 29 18 20.0 159.4 994 0 9 -- Chart
1961 10 30 00 20.4 158.0 994 0 9 -- Chart
1961 10 30 06 20.8 156.7 994 0 9 -- Chart
1961 10 30 12 21.3 155.4 994 0 9 -- Chart
1961 10 30 18 22.0 154.8 994 0 9 -- Chart
1961 10 31 00 23.0 152.3 1000 0 9 -- Chart
1961 10 31 06 23.8 151.2 1004 0 9 -- Chart
1961 10 31 12 24.8 150.0 1006 0 9 -- Chart
1961 10 31 18 25.9 149.1 1008 0 9 -- Chart
1961 11 1 00 28.0 148.9 1010 0 2 -- Chart
1961 11 1 06 30.6 150.2 1010 0 2 -- Chart
Japan Meteorological Agency Best Track Data | Correction Date : 1989-06-01
< Typhoon 196126 1961 Season Typhoon 196128 >

Help